sensor_id;sensor_type;location;lat;lon;timestamp;P1;durP1;ratioP1;P2;durP2;ratioP2
77078;SDS011;66004;55.096;38.760;2023-01-09T00:00:19;11.80;;;4.03;;
77078;SDS011;66004;55.096;38.760;2023-01-09T00:02:45;4.63;;;2.58;;
77078;SDS011;66004;55.096;38.760;2023-01-09T00:05:12;3.70;;;1.88;;
77078;SDS011;66004;55.096;38.760;2023-01-09T00:07:39;20.30;;;1.83;;
77078;SDS011;66004;55.096;38.760;2023-01-09T00:10:05;5.40;;;2.40;;
77078;SDS011;66004;55.096;38.760;2023-01-09T00:14:57;0.52;;;0.52;;
77078;SDS011;66004;55.096;38.760;2023-01-09T00:17:23;10.20;;;2.88;;
77078;SDS011;66004;55.096;38.760;2023-01-09T00:19:49;5.00;;;2.38;;
77078;SDS011;66004;55.096;38.760;2023-01-09T00:22:14;5.45;;;2.45;;
77078;SDS011;66004;55.096;38.760;2023-01-09T00:24:40;9.35;;;1.58;;
77078;SDS011;66004;55.096;38.760;2023-01-09T00:27:05;6.85;;;2.58;;
77078;SDS011;66004;55.096;38.760;2023-01-09T00:29:31;6.20;;;1.48;;
77078;SDS011;66004;55.096;38.760;2023-01-09T00:31:56;7.47;;;3.00;;
77078;SDS011;66004;55.096;38.760;2023-01-09T00:34:22;4.07;;;2.10;;
77078;SDS011;66004;55.096;38.760;2023-01-09T00:36:48;1.60;;;1.50;;
77078;SDS011;66004;55.096;38.760;2023-01-09T00:39:19;3.03;;;1.13;;
77078;SDS011;66004;55.096;38.760;2023-01-09T00:41:49;2.55;;;1.40;;
77078;SDS011;66004;55.096;38.760;2023-01-09T00:44:23;4.75;;;2.63;;
77078;SDS011;66004;55.096;38.760;2023-01-09T00:46:56;6.70;;;3.03;;
77078;SDS011;66004;55.096;38.760;2023-01-09T00:49:29;1.13;;;0.75;;
77078;SDS011;66004;55.096;38.760;2023-01-09T00:51:58;9.93;;;3.17;;
77078;SDS011;66004;55.096;38.760;2023-01-09T00:56:52;8.32;;;3.47;;
77078;SDS011;66004;55.096;38.760;2023-01-09T00:59:20;2.80;;;1.42;;
77078;SDS011;66004;55.096;38.760;2023-01-09T01:01:46;1.25;;;0.57;;
77078;SDS011;66004;55.096;38.760;2023-01-09T01:04:12;3.22;;;1.13;;
77078;SDS011;66004;55.096;38.760;2023-01-09T01:06:56;2.35;;;1.30;;
77078;SDS011;66004;55.096;38.760;2023-01-09T01:09:40;1.52;;;0.65;;
77078;SDS011;66004;55.096;38.760;2023-01-09T01:12:05;8.55;;;2.53;;
77078;SDS011;66004;55.096;38.760;2023-01-09T01:14:35;1.02;;;0.90;;
77078;SDS011;66004;55.096;38.760;2023-01-09T01:17:02;5.78;;;2.40;;
77078;SDS011;66004;55.096;38.760;2023-01-09T01:19:28;5.65;;;1.98;;
77078;SDS011;66004;55.096;38.760;2023-01-09T01:21:54;2.00;;;1.88;;
77078;SDS011;66004;55.096;38.760;2023-01-09T01:24:20;4.07;;;2.22;;
77078;SDS011;66004;55.096;38.760;2023-01-09T01:26:46;3.45;;;2.20;;
77078;SDS011;66004;55.096;38.760;2023-01-09T01:29:11;9.45;;;2.40;;
77078;SDS011;66004;55.096;38.760;2023-01-09T01:31:37;7.78;;;2.80;;
77078;SDS011;66004;55.096;38.760;2023-01-09T01:34:02;4.32;;;2.85;;
77078;SDS011;66004;55.096;38.760;2023-01-09T01:36:28;3.15;;;2.03;;
77078;SDS011;66004;55.096;38.760;2023-01-09T01:38:54;3.03;;;1.30;;
77078;SDS011;66004;55.096;38.760;2023-01-09T01:41:19;6.15;;;2.63;;
77078;SDS011;66004;55.096;38.760;2023-01-09T01:44:01;4.50;;;1.75;;
77078;SDS011;66004;55.096;38.760;2023-01-09T01:46:30;3.22;;;2.15;;
77078;SDS011;66004;55.096;38.760;2023-01-09T01:51:36;1.17;;;0.98;;
77078;SDS011;66004;55.096;38.760;2023-01-09T01:54:06;7.22;;;2.50;;
77078;SDS011;66004;55.096;38.760;2023-01-09T01:56:39;10.50;;;2.50;;
77078;SDS011;66004;55.096;38.760;2023-01-09T02:01:39;4.15;;;1.33;;
77078;SDS011;66004;55.096;38.760;2023-01-09T02:04:08;7.80;;;3.05;;
77078;SDS011;66004;55.096;38.760;2023-01-09T02:06:34;4.32;;;1.75;;
77078;SDS011;66004;55.096;38.760;2023-01-09T02:09:02;3.42;;;1.73;;
77078;SDS011;66004;55.096;38.760;2023-01-09T02:11:29;4.80;;;2.08;;
77078;SDS011;66004;55.096;38.760;2023-01-09T02:13:54;3.15;;;2.08;;
77078;SDS011;66004;55.096;38.760;2023-01-09T02:38:39;2.00;;;1.08;;
77078;SDS011;66004;55.096;38.760;2023-01-09T02:41:13;1.35;;;0.98;;
77078;SDS011;66004;55.096;38.760;2023-01-09T02:43:46;6.47;;;2.75;;
77078;SDS011;66004;55.096;38.760;2023-01-09T02:46:18;4.45;;;1.23;;
77078;SDS011;66004;55.096;38.760;2023-01-09T02:48:45;2.30;;;0.93;;
77078;SDS011;66004;55.096;38.760;2023-01-09T02:56:47;1.02;;;0.55;;
77078;SDS011;66004;55.096;38.760;2023-01-09T03:05:05;4.93;;;1.85;;
77078;SDS011;66004;55.096;38.760;2023-01-09T03:07:41;1.85;;;1.50;;
77078;SDS011;66004;55.096;38.760;2023-01-09T03:10:34;3.45;;;0.75;;
77078;SDS011;66004;55.096;38.760;2023-01-09T03:13:11;1.67;;;0.52;;
77078;SDS011;66004;55.096;38.760;2023-01-09T03:15:41;2.05;;;0.93;;
77078;SDS011;66004;55.096;38.760;2023-01-09T03:18:10;1.90;;;1.08;;
77078;SDS011;66004;55.096;38.760;2023-01-09T03:20:38;2.17;;;1.05;;
77078;SDS011;66004;55.096;38.760;2023-01-09T03:23:05;4.13;;;1.77;;
77078;SDS011;66004;55.096;38.760;2023-01-09T03:25:32;0.82;;;0.73;;
77078;SDS011;66004;55.096;38.760;2023-01-09T03:27:59;5.30;;;2.15;;
77078;SDS011;66004;55.096;38.760;2023-01-09T03:30:27;6.90;;;1.40;;
77078;SDS011;66004;55.096;38.760;2023-01-09T03:32:54;3.47;;;1.98;;
77078;SDS011;66004;55.096;38.760;2023-01-09T03:35:20;2.08;;;1.15;;
77078;SDS011;66004;55.096;38.760;2023-01-09T03:37:46;2.30;;;0.95;;
77078;SDS011;66004;55.096;38.760;2023-01-09T03:40:12;2.38;;;1.30;;
77078;SDS011;66004;55.096;38.760;2023-01-09T03:42:37;3.33;;;0.85;;
77078;SDS011;66004;55.096;38.760;2023-01-09T03:45:03;2.47;;;1.42;;
77078;SDS011;66004;55.096;38.760;2023-01-09T03:47:29;2.83;;;2.13;;
77078;SDS011;66004;55.096;38.760;2023-01-09T03:49:55;5.13;;;2.25;;
77078;SDS011;66004;55.096;38.760;2023-01-09T03:52:21;4.72;;;1.25;;
77078;SDS011;66004;55.096;38.760;2023-01-09T03:54:46;1.80;;;0.98;;
77078;SDS011;66004;55.096;38.760;2023-01-09T03:57:12;1.17;;;0.60;;
77078;SDS011;66004;55.096;38.760;2023-01-09T03:59:37;3.17;;;1.67;;
77078;SDS011;66004;55.096;38.760;2023-01-09T04:02:04;2.88;;;0.90;;
77078;SDS011;66004;55.096;38.760;2023-01-09T04:04:30;2.80;;;1.42;;
77078;SDS011;66004;55.096;38.760;2023-01-09T04:06:55;4.50;;;1.48;;
77078;SDS011;66004;55.096;38.760;2023-01-09T04:09:21;4.20;;;2.40;;
77078;SDS011;66004;55.096;38.760;2023-01-09T04:11:46;5.10;;;2.67;;
77078;SDS011;66004;55.096;38.760;2023-01-09T04:14:12;1.85;;;0.95;;
77078;SDS011;66004;55.096;38.760;2023-01-09T04:16:38;2.65;;;1.35;;
77078;SDS011;66004;55.096;38.760;2023-01-09T04:19:04;4.50;;;2.25;;
77078;SDS011;66004;55.096;38.760;2023-01-09T04:21:29;3.38;;;2.00;;
77078;SDS011;66004;55.096;38.760;2023-01-09T04:23:55;4.40;;;2.78;;
77078;SDS011;66004;55.096;38.760;2023-01-09T04:26:20;3.40;;;1.33;;
77078;SDS011;66004;55.096;38.760;2023-01-09T04:28:46;4.43;;;1.80;;
77078;SDS011;66004;55.096;38.760;2023-01-09T04:31:11;1.70;;;1.00;;
77078;SDS011;66004;55.096;38.760;2023-01-09T04:33:37;2.33;;;1.58;;
77078;SDS011;66004;55.096;38.760;2023-01-09T04:36:03;2.03;;;1.25;;
77078;SDS011;66004;55.096;38.760;2023-01-09T04:38:28;1.30;;;1.10;;
77078;SDS011;66004;55.096;38.760;2023-01-09T04:40:54;2.45;;;1.60;;
77078;SDS011;66004;55.096;38.760;2023-01-09T04:43:19;5.68;;;2.28;;
77078;SDS011;66004;55.096;38.760;2023-01-09T04:45:45;3.00;;;1.13;;
77078;SDS011;66004;55.096;38.760;2023-01-09T04:48:10;1.98;;;1.60;;
77078;SDS011;66004;55.096;38.760;2023-01-09T04:50:36;1.65;;;0.93;;
77078;SDS011;66004;55.096;38.760;2023-01-09T04:53:01;3.17;;;1.63;;
77078;SDS011;66004;55.096;38.760;2023-01-09T04:55:27;2.17;;;1.23;;
77078;SDS011;66004;55.096;38.760;2023-01-09T04:57:53;2.55;;;0.82;;
77078;SDS011;66004;55.096;38.760;2023-01-09T05:00:19;5.03;;;2.58;;
77078;SDS011;66004;55.096;38.760;2023-01-09T05:02:44;1.58;;;1.00;;
77078;SDS011;66004;55.096;38.760;2023-01-09T05:05:10;2.00;;;1.13;;
77078;SDS011;66004;55.096;38.760;2023-01-09T05:07:35;4.20;;;1.48;;
77078;SDS011;66004;55.096;38.760;2023-01-09T05:10:02;2.47;;;1.48;;
77078;SDS011;66004;55.096;38.760;2023-01-09T05:12:29;3.92;;;2.28;;
77078;SDS011;66004;55.096;38.760;2023-01-09T05:14:54;0.77;;;0.68;;
77078;SDS011;66004;55.096;38.760;2023-01-09T05:19:47;1.25;;;0.68;;
77078;SDS011;66004;55.096;38.760;2023-01-09T05:22:12;0.95;;;0.65;;
77078;SDS011;66004;55.096;38.760;2023-01-09T05:24:38;1.08;;;0.52;;
77078;SDS011;66004;55.096;38.760;2023-01-09T05:27:04;0.63;;;0.52;;
77078;SDS011;66004;55.096;38.760;2023-01-09T05:29:29;1.02;;;0.45;;
77078;SDS011;66004;55.096;38.760;2023-01-09T05:31:55;1.88;;;0.77;;
77078;SDS011;66004;55.096;38.760;2023-01-09T05:34:21;1.60;;;1.02;;
77078;SDS011;66004;55.096;38.760;2023-01-09T05:36:47;2.83;;;1.48;;
77078;SDS011;66004;55.096;38.760;2023-01-09T05:39:12;10.02;;;4.22;;
77078;SDS011;66004;55.096;38.760;2023-01-09T05:41:38;4.40;;;1.27;;
77078;SDS011;66004;55.096;38.760;2023-01-09T05:44:04;1.40;;;0.38;;
77078;SDS011;66004;55.096;38.760;2023-01-09T05:46:30;1.33;;;1.02;;
77078;SDS011;66004;55.096;38.760;2023-01-09T05:48:56;7.07;;;1.83;;
77078;SDS011;66004;55.096;38.760;2023-01-09T05:51:21;5.43;;;1.52;;
77078;SDS011;66004;55.096;38.760;2023-01-09T05:53:47;2.15;;;0.77;;
77078;SDS011;66004;55.096;38.760;2023-01-09T05:56:12;2.20;;;1.85;;
77078;SDS011;66004;55.096;38.760;2023-01-09T05:58:38;5.10;;;1.42;;
77078;SDS011;66004;55.096;38.760;2023-01-09T06:01:03;1.83;;;0.45;;
77078;SDS011;66004;55.096;38.760;2023-01-09T06:03:29;2.25;;;0.85;;
77078;SDS011;66004;55.096;38.760;2023-01-09T06:05:55;4.43;;;1.35;;
77078;SDS011;66004;55.096;38.760;2023-01-09T06:08:20;1.67;;;1.33;;
77078;SDS011;66004;55.096;38.760;2023-01-09T06:10:46;3.03;;;1.83;;
77078;SDS011;66004;55.096;38.760;2023-01-09T06:13:12;2.20;;;0.95;;
77078;SDS011;66004;55.096;38.760;2023-01-09T06:15:37;3.05;;;2.05;;
77078;SDS011;66004;55.096;38.760;2023-01-09T06:18:03;2.65;;;1.27;;
77078;SDS011;66004;55.096;38.760;2023-01-09T06:20:29;15.20;;;2.30;;
77078;SDS011;66004;55.096;38.760;2023-01-09T06:22:55;7.82;;;2.42;;
77078;SDS011;66004;55.096;38.760;2023-01-09T06:25:20;4.53;;;0.30;;
77078;SDS011;66004;55.096;38.760;2023-01-09T06:27:46;3.47;;;1.55;;
77078;SDS011;66004;55.096;38.760;2023-01-09T06:30:11;3.00;;;1.30;;
77078;SDS011;66004;55.096;38.760;2023-01-09T06:32:37;6.82;;;2.55;;
77078;SDS011;66004;55.096;38.760;2023-01-09T06:35:03;2.15;;;1.02;;
77078;SDS011;66004;55.096;38.760;2023-01-09T06:37:29;1.73;;;1.08;;
77078;SDS011;66004;55.096;38.760;2023-01-09T06:39:54;2.78;;;1.00;;
77078;SDS011;66004;55.096;38.760;2023-01-09T06:42:20;2.78;;;2.03;;
77078;SDS011;66004;55.096;38.760;2023-01-09T06:44:46;1.67;;;1.02;;
77078;SDS011;66004;55.096;38.760;2023-01-09T06:47:11;3.70;;;0.93;;
77078;SDS011;66004;55.096;38.760;2023-01-09T06:49:37;0.95;;;0.50;;
77078;SDS011;66004;55.096;38.760;2023-01-09T06:52:02;3.00;;;1.67;;
77078;SDS011;66004;55.096;38.760;2023-01-09T06:54:31;2.70;;;0.90;;
77078;SDS011;66004;55.096;38.760;2023-01-09T06:56:56;3.97;;;1.70;;
77078;SDS011;66004;55.096;38.760;2023-01-09T06:59:22;2.08;;;0.90;;
77078;SDS011;66004;55.096;38.760;2023-01-09T07:01:47;1.80;;;1.63;;
77078;SDS011;66004;55.096;38.760;2023-01-09T07:04:13;1.25;;;0.50;;
77078;SDS011;66004;55.096;38.760;2023-01-09T07:06:38;1.15;;;0.52;;
77078;SDS011;66004;55.096;38.760;2023-01-09T07:09:04;1.80;;;1.20;;
77078;SDS011;66004;55.096;38.760;2023-01-09T07:11:30;2.45;;;1.35;;
77078;SDS011;66004;55.096;38.760;2023-01-09T07:13:56;4.28;;;2.05;;
77078;SDS011;66004;55.096;38.760;2023-01-09T07:16:21;2.22;;;1.08;;
77078;SDS011;66004;55.096;38.760;2023-01-09T07:18:47;5.40;;;2.15;;
77078;SDS011;66004;55.096;38.760;2023-01-09T07:21:12;2.20;;;0.80;;
77078;SDS011;66004;55.096;38.760;2023-01-09T07:23:38;3.30;;;1.75;;
77078;SDS011;66004;55.096;38.760;2023-01-09T07:26:03;9.88;;;1.50;;
77078;SDS011;66004;55.096;38.760;2023-01-09T07:28:29;3.90;;;1.55;;
77078;SDS011;66004;55.096;38.760;2023-01-09T07:30:55;4.72;;;1.85;;
77078;SDS011;66004;55.096;38.760;2023-01-09T07:33:22;1.80;;;0.73;;
77078;SDS011;66004;55.096;38.760;2023-01-09T07:35:49;4.63;;;1.73;;
77078;SDS011;66004;55.096;38.760;2023-01-09T07:38:15;8.75;;;2.60;;
77078;SDS011;66004;55.096;38.760;2023-01-09T07:40:40;1.65;;;0.80;;
77078;SDS011;66004;55.096;38.760;2023-01-09T07:43:06;0.45;;;0.45;;
77078;SDS011;66004;55.096;38.760;2023-01-09T07:45:31;2.50;;;1.15;;
77078;SDS011;66004;55.096;38.760;2023-01-09T07:47:57;1.05;;;0.98;;
77078;SDS011;66004;55.096;38.760;2023-01-09T07:52:50;0.77;;;0.50;;
77078;SDS011;66004;55.096;38.760;2023-01-09T07:55:15;2.03;;;1.05;;
77078;SDS011;66004;55.096;38.760;2023-01-09T07:57:41;2.28;;;1.45;;
77078;SDS011;66004;55.096;38.760;2023-01-09T08:00:07;0.70;;;0.43;;
77078;SDS011;66004;55.096;38.760;2023-01-09T08:02:37;2.92;;;1.60;;
77078;SDS011;66004;55.096;38.760;2023-01-09T08:05:03;1.67;;;0.70;;
77078;SDS011;66004;55.096;38.760;2023-01-09T08:07:29;1.35;;;1.15;;
77078;SDS011;66004;55.096;38.760;2023-01-09T08:09:55;1.25;;;0.73;;
77078;SDS011;66004;55.096;38.760;2023-01-09T08:12:20;3.13;;;1.52;;
77078;SDS011;66004;55.096;38.760;2023-01-09T08:14:46;1.60;;;1.50;;
77078;SDS011;66004;55.096;38.760;2023-01-09T08:17:11;2.72;;;1.15;;
77078;SDS011;66004;55.096;38.760;2023-01-09T08:19:37;1.20;;;0.80;;
77078;SDS011;66004;55.096;38.760;2023-01-09T08:22:03;3.33;;;1.30;;
77078;SDS011;66004;55.096;38.760;2023-01-09T08:24:28;3.30;;;1.35;;
77078;SDS011;66004;55.096;38.760;2023-01-09T08:26:55;4.38;;;1.70;;
77078;SDS011;66004;55.096;38.760;2023-01-09T08:29:20;0.50;;;0.50;;
77078;SDS011;66004;55.096;38.760;2023-01-09T08:31:46;3.00;;;1.73;;
77078;SDS011;66004;55.096;38.760;2023-01-09T08:34:11;1.77;;;1.33;;
77078;SDS011;66004;55.096;38.760;2023-01-09T08:36:37;2.88;;;1.40;;
77078;SDS011;66004;55.096;38.760;2023-01-09T08:39:02;2.25;;;1.45;;
77078;SDS011;66004;55.096;38.760;2023-01-09T08:41:28;2.75;;;0.88;;
77078;SDS011;66004;55.096;38.760;2023-01-09T08:44:12;3.67;;;1.98;;
77078;SDS011;66004;55.096;38.760;2023-01-09T08:46:56;2.15;;;1.08;;
77078;SDS011;66004;55.096;38.760;2023-01-09T08:49:31;3.22;;;1.88;;
77078;SDS011;66004;55.096;38.760;2023-01-09T08:52:00;3.00;;;1.30;;
77078;SDS011;66004;55.096;38.760;2023-01-09T08:54:26;2.33;;;1.08;;
77078;SDS011;66004;55.096;38.760;2023-01-09T08:56:52;1.75;;;0.90;;
77078;SDS011;66004;55.096;38.760;2023-01-09T08:59:17;1.13;;;0.65;;
77078;SDS011;66004;55.096;38.760;2023-01-09T09:01:43;3.40;;;1.20;;
77078;SDS011;66004;55.096;38.760;2023-01-09T09:04:08;1.38;;;1.00;;
77078;SDS011;66004;55.096;38.760;2023-01-09T09:06:34;5.95;;;2.03;;
77078;SDS011;66004;55.096;38.760;2023-01-09T09:08:59;4.25;;;1.83;;
77078;SDS011;66004;55.096;38.760;2023-01-09T09:11:28;3.47;;;1.17;;
77078;SDS011;66004;55.096;38.760;2023-01-09T09:13:54;2.63;;;0.90;;
77078;SDS011;66004;55.096;38.760;2023-01-09T09:16:20;5.63;;;1.52;;
77078;SDS011;66004;55.096;38.760;2023-01-09T09:18:46;3.25;;;1.25;;
77078;SDS011;66004;55.096;38.760;2023-01-09T09:21:11;6.63;;;1.73;;
77078;SDS011;66004;55.096;38.760;2023-01-09T09:23:37;4.00;;;1.15;;
77078;SDS011;66004;55.096;38.760;2023-01-09T09:26:02;1.15;;;0.80;;
77078;SDS011;66004;55.096;38.760;2023-01-09T09:28:28;3.88;;;1.42;;
77078;SDS011;66004;55.096;38.760;2023-01-09T09:30:54;8.10;;;2.83;;
77078;SDS011;66004;55.096;38.760;2023-01-09T09:33:20;15.00;;;5.53;;
77078;SDS011;66004;55.096;38.760;2023-01-09T09:35:45;15.55;;;5.35;;
77078;SDS011;66004;55.096;38.760;2023-01-09T09:38:11;16.27;;;5.43;;
77078;SDS011;66004;55.096;38.760;2023-01-09T09:46:56;27.48;;;11.13;;
77078;SDS011;66004;55.096;38.760;2023-01-09T09:49:36;18.60;;;9.13;;
77078;SDS011;66004;55.096;38.760;2023-01-09T09:55:10;17.80;;;10.43;;
77078;SDS011;66004;55.096;38.760;2023-01-09T09:57:45;10.30;;;6.05;;
77078;SDS011;66004;55.096;38.760;2023-01-09T10:00:17;14.70;;;6.90;;
77078;SDS011;66004;55.096;38.760;2023-01-09T10:02:53;10.93;;;4.30;;
77078;SDS011;66004;55.096;38.760;2023-01-09T10:05:27;7.63;;;2.85;;
77078;SDS011;66004;55.096;38.760;2023-01-09T10:08:04;3.45;;;1.48;;
77078;SDS011;66004;55.096;38.760;2023-01-09T10:10:41;4.50;;;1.80;;
77078;SDS011;66004;55.096;38.760;2023-01-09T10:13:12;4.90;;;2.42;;
77078;SDS011;66004;55.096;38.760;2023-01-09T10:21:33;12.32;;;5.70;;
77078;SDS011;66004;55.096;38.760;2023-01-09T10:24:19;12.43;;;3.85;;
77078;SDS011;66004;55.096;38.760;2023-01-09T10:26:57;13.73;;;5.35;;
77078;SDS011;66004;55.096;38.760;2023-01-09T10:37:49;2.50;;;1.58;;
77078;SDS011;66004;55.096;38.760;2023-01-09T10:42:53;0.57;;;0.38;;
77078;SDS011;66004;55.096;38.760;2023-01-09T10:51:03;2.67;;;1.73;;
77078;SDS011;66004;55.096;38.760;2023-01-09T10:53:42;1.15;;;0.73;;
77078;SDS011;66004;55.096;38.760;2023-01-09T10:56:26;1.52;;;0.82;;
77078;SDS011;66004;55.096;38.760;2023-01-09T10:58:57;4.35;;;1.52;;
77078;SDS011;66004;55.096;38.760;2023-01-09T11:01:33;3.10;;;1.25;;
77078;SDS011;66004;55.096;38.760;2023-01-09T11:04:08;2.50;;;0.75;;
77078;SDS011;66004;55.096;38.760;2023-01-09T11:06:47;0.80;;;0.55;;
77078;SDS011;66004;55.096;38.760;2023-01-09T11:09:16;2.03;;;1.38;;
77078;SDS011;66004;55.096;38.760;2023-01-09T11:11:43;2.70;;;0.80;;
77078;SDS011;66004;55.096;38.760;2023-01-09T11:16:49;2.05;;;0.80;;
77078;SDS011;66004;55.096;38.760;2023-01-09T11:19:17;1.88;;;0.82;;
77078;SDS011;66004;55.096;38.760;2023-01-09T11:21:43;2.05;;;1.23;;
77078;SDS011;66004;55.096;38.760;2023-01-09T11:26:47;2.20;;;0.85;;
77078;SDS011;66004;55.096;38.760;2023-01-09T11:29:18;2.97;;;1.23;;
77078;SDS011;66004;55.096;38.760;2023-01-09T11:31:52;2.20;;;1.30;;
77078;SDS011;66004;55.096;38.760;2023-01-09T11:34:20;8.88;;;1.80;;
77078;SDS011;66004;55.096;38.760;2023-01-09T11:36:48;2.95;;;1.20;;
77078;SDS011;66004;55.096;38.760;2023-01-09T11:39:20;4.65;;;0.80;;
77078;SDS011;66004;55.096;38.760;2023-01-09T11:41:55;5.20;;;1.85;;
77078;SDS011;66004;55.096;38.760;2023-01-09T11:44:23;1.85;;;1.15;;
77078;SDS011;66004;55.096;38.760;2023-01-09T11:46:50;1.73;;;0.95;;
77078;SDS011;66004;55.096;38.760;2023-01-09T11:49:20;2.65;;;1.92;;
77078;SDS011;66004;55.096;38.760;2023-01-09T11:54:39;3.97;;;1.00;;
77078;SDS011;66004;55.096;38.760;2023-01-09T11:57:12;1.77;;;1.02;;
77078;SDS011;66004;55.096;38.760;2023-01-09T11:59:38;2.47;;;1.33;;
77078;SDS011;66004;55.096;38.760;2023-01-09T12:04:53;5.78;;;2.58;;
77078;SDS011;66004;55.096;38.760;2023-01-09T12:19:05;2.15;;;1.20;;
77078;SDS011;66004;55.096;38.760;2023-01-09T12:35:16;0.63;;;0.52;;
77078;SDS011;66004;55.096;38.760;2023-01-09T12:43:44;4.72;;;3.03;;
77078;SDS011;66004;55.096;38.760;2023-01-09T12:48:56;4.07;;;1.77;;
77078;SDS011;66004;55.096;38.760;2023-01-09T12:54:45;3.58;;;1.55;;
77078;SDS011;66004;55.096;38.760;2023-01-09T12:57:29;2.67;;;1.17;;
77078;SDS011;66004;55.096;38.760;2023-01-09T13:00:05;1.75;;;0.88;;
77078;SDS011;66004;55.096;38.760;2023-01-09T13:05:22;1.10;;;0.52;;
77078;SDS011;66004;55.096;38.760;2023-01-09T13:07:54;3.47;;;1.13;;
77078;SDS011;66004;55.096;38.760;2023-01-09T13:10:29;0.88;;;0.82;;
77078;SDS011;66004;55.096;38.760;2023-01-09T13:13:04;1.38;;;0.88;;
77078;SDS011;66004;55.096;38.760;2023-01-09T13:15:40;1.52;;;1.13;;
77078;SDS011;66004;55.096;38.760;2023-01-09T13:20:43;0.98;;;0.52;;
77078;SDS011;66004;55.096;38.760;2023-01-09T13:23:25;3.20;;;1.02;;
77078;SDS011;66004;55.096;38.760;2023-01-09T13:25:53;3.10;;;1.83;;
77078;SDS011;66004;55.096;38.760;2023-01-09T13:28:26;3.53;;;1.00;;
77078;SDS011;66004;55.096;38.760;2023-01-09T13:33:53;2.40;;;1.25;;
77078;SDS011;66004;55.096;38.760;2023-01-09T13:36:25;2.53;;;1.27;;
77078;SDS011;66004;55.096;38.760;2023-01-09T13:38:55;4.95;;;0.60;;
77078;SDS011;66004;55.096;38.760;2023-01-09T13:41:22;1.98;;;1.42;;
77078;SDS011;66004;55.096;38.760;2023-01-09T13:46:46;3.20;;;1.10;;
77078;SDS011;66004;55.096;38.760;2023-01-09T13:52:02;0.65;;;0.30;;
77078;SDS011;66004;55.096;38.760;2023-01-09T13:59:48;3.30;;;1.73;;
77078;SDS011;66004;55.096;38.760;2023-01-09T14:04:58;3.00;;;1.95;;
77078;SDS011;66004;55.096;38.760;2023-01-09T14:07:27;3.20;;;1.10;;
77078;SDS011;66004;55.096;38.760;2023-01-09T14:09:58;0.75;;;0.70;;
77078;SDS011;66004;55.096;38.760;2023-01-09T14:12:30;2.35;;;1.17;;
77078;SDS011;66004;55.096;38.760;2023-01-09T14:15:05;3.53;;;0.93;;
77078;SDS011;66004;55.096;38.760;2023-01-09T14:17:35;1.50;;;1.35;;
77078;SDS011;66004;55.096;38.760;2023-01-09T14:20:12;4.57;;;1.73;;
77078;SDS011;66004;55.096;38.760;2023-01-09T14:22:54;2.55;;;0.77;;
77078;SDS011;66004;55.096;38.760;2023-01-09T14:25:25;0.55;;;0.55;;
77078;SDS011;66004;55.096;38.760;2023-01-09T14:35:43;8.63;;;1.20;;
77078;SDS011;66004;55.096;38.760;2023-01-09T14:38:16;2.72;;;1.38;;
77078;SDS011;66004;55.096;38.760;2023-01-09T14:40:47;1.95;;;1.08;;
77078;SDS011;66004;55.096;38.760;2023-01-09T14:43:30;2.30;;;1.15;;
77078;SDS011;66004;55.096;38.760;2023-01-09T14:46:07;3.15;;;1.05;;
77078;SDS011;66004;55.096;38.760;2023-01-09T14:48:41;1.92;;;0.50;;
77078;SDS011;66004;55.096;38.760;2023-01-09T14:51:16;1.92;;;0.70;;
77078;SDS011;66004;55.096;38.760;2023-01-09T14:53:43;2.63;;;1.50;;
77078;SDS011;66004;55.096;38.760;2023-01-09T14:56:23;1.48;;;0.85;;
77078;SDS011;66004;55.096;38.760;2023-01-09T14:59:04;1.02;;;0.85;;
77078;SDS011;66004;55.096;38.760;2023-01-09T15:01:34;2.47;;;1.23;;
77078;SDS011;66004;55.096;38.760;2023-01-09T15:04:01;1.38;;;0.65;;
77078;SDS011;66004;55.096;38.760;2023-01-09T15:06:35;3.13;;;1.02;;
77078;SDS011;66004;55.096;38.760;2023-01-09T15:11:56;3.42;;;1.20;;
77078;SDS011;66004;55.096;38.760;2023-01-09T15:14:38;1.55;;;0.80;;
77078;SDS011;66004;55.096;38.760;2023-01-09T15:17:40;1.00;;;0.85;;
77078;SDS011;66004;55.096;38.760;2023-01-09T15:20:01;3.75;;;1.40;;
77078;SDS011;66004;55.096;38.760;2023-01-09T15:27:23;1.17;;;0.75;;
77078;SDS011;66004;55.096;38.760;2023-01-09T15:29:50;3.47;;;1.38;;
77078;SDS011;66004;55.096;38.760;2023-01-09T15:32:17;0.88;;;0.77;;
77078;SDS011;66004;55.096;38.760;2023-01-09T15:34:48;1.85;;;1.13;;
77078;SDS011;66004;55.096;38.760;2023-01-09T15:37:32;1.00;;;0.85;;
77078;SDS011;66004;55.096;38.760;2023-01-09T15:40:00;0.77;;;0.43;;
77078;SDS011;66004;55.096;38.760;2023-01-09T15:42:30;1.63;;;0.57;;
77078;SDS011;66004;55.096;38.760;2023-01-09T15:45:23;1.42;;;0.80;;
77078;SDS011;66004;55.096;38.760;2023-01-09T15:50:48;1.08;;;0.70;;
77078;SDS011;66004;55.096;38.760;2023-01-09T15:53:18;2.78;;;1.33;;
77078;SDS011;66004;55.096;38.760;2023-01-09T15:56:00;4.25;;;1.40;;
77078;SDS011;66004;55.096;38.760;2023-01-09T15:58:32;1.42;;;0.73;;
77078;SDS011;66004;55.096;38.760;2023-01-09T16:01:11;4.95;;;1.17;;
77078;SDS011;66004;55.096;38.760;2023-01-09T16:03:49;3.30;;;1.13;;
77078;SDS011;66004;55.096;38.760;2023-01-09T16:06:22;0.80;;;0.57;;
77078;SDS011;66004;55.096;38.760;2023-01-09T16:08:53;3.60;;;1.65;;
77078;SDS011;66004;55.096;38.760;2023-01-09T16:11:28;1.88;;;1.02;;
77078;SDS011;66004;55.096;38.760;2023-01-09T16:14:12;2.22;;;1.05;;
77078;SDS011;66004;55.096;38.760;2023-01-09T16:16:44;3.83;;;1.23;;
77078;SDS011;66004;55.096;38.760;2023-01-09T16:19:30;1.10;;;0.65;;
77078;SDS011;66004;55.096;38.760;2023-01-09T16:22:30;1.27;;;0.75;;
77078;SDS011;66004;55.096;38.760;2023-01-09T16:25:01;1.55;;;1.00;;
77078;SDS011;66004;55.096;38.760;2023-01-09T16:33:23;3.63;;;1.23;;
77078;SDS011;66004;55.096;38.760;2023-01-09T16:35:51;1.13;;;0.93;;
77078;SDS011;66004;55.096;38.760;2023-01-09T16:38:18;1.73;;;0.40;;
77078;SDS011;66004;55.096;38.760;2023-01-09T16:43:47;0.88;;;0.85;;
77078;SDS011;66004;55.096;38.760;2023-01-09T16:46:13;2.90;;;0.80;;
77078;SDS011;66004;55.096;38.760;2023-01-09T16:48:40;4.50;;;1.20;;
77078;SDS011;66004;55.096;38.760;2023-01-09T16:51:10;1.05;;;0.63;;
77078;SDS011;66004;55.096;38.760;2023-01-09T16:53:46;6.32;;;1.67;;
77078;SDS011;66004;55.096;38.760;2023-01-09T16:56:19;2.80;;;1.40;;
77078;SDS011;66004;55.096;38.760;2023-01-09T16:58:47;1.02;;;0.93;;
77078;SDS011;66004;55.096;38.760;2023-01-09T17:01:14;0.80;;;0.70;;
77078;SDS011;66004;55.096;38.760;2023-01-09T17:03:41;0.90;;;0.52;;
77078;SDS011;66004;55.096;38.760;2023-01-09T17:06:09;5.60;;;0.95;;
77078;SDS011;66004;55.096;38.760;2023-01-09T17:11:05;1.08;;;0.95;;
77078;SDS011;66004;55.096;38.760;2023-01-09T17:13:36;1.60;;;0.60;;
77078;SDS011;66004;55.096;38.760;2023-01-09T17:16:02;1.15;;;0.90;;
77078;SDS011;66004;55.096;38.760;2023-01-09T17:18:28;1.17;;;0.68;;
77078;SDS011;66004;55.096;38.760;2023-01-09T17:20:54;2.53;;;1.02;;
77078;SDS011;66004;55.096;38.760;2023-01-09T17:23:21;2.75;;;0.93;;
77078;SDS011;66004;55.096;38.760;2023-01-09T17:25:50;0.32;;;0.20;;
77078;SDS011;66004;55.096;38.760;2023-01-09T17:28:45;3.72;;;1.40;;
77078;SDS011;66004;55.096;38.760;2023-01-09T17:31:12;1.65;;;0.90;;
77078;SDS011;66004;55.096;38.760;2023-01-09T17:33:38;1.42;;;0.73;;
77078;SDS011;66004;55.096;38.760;2023-01-09T17:36:15;1.67;;;0.98;;
77078;SDS011;66004;55.096;38.760;2023-01-09T17:38:46;3.33;;;1.23;;
77078;SDS011;66004;55.096;38.760;2023-01-09T17:41:18;1.00;;;0.75;;
77078;SDS011;66004;55.096;38.760;2023-01-09T17:43:48;1.85;;;0.95;;